createdAt,value
2022-09-21T00:00:40.846Z,74.22
2022-09-21T00:05:42.362Z,73.32
2022-09-21T00:10:49.805Z,73.96
2022-09-21T00:15:51.107Z,72.60
2022-09-21T00:20:52.754Z,72.96
2022-09-21T00:26:07.491Z,72.71
2022-09-21T00:31:12.299Z,74.34
2022-09-21T00:36:18.805Z,75.70
2022-09-21T00:41:20.827Z,74.58
2022-09-21T00:46:28.691Z,75.34
2022-09-21T00:51:30.497Z,76.61
2022-09-21T00:56:31.794Z,77.01
2022-09-21T01:01:33.096Z,78.15
2022-09-21T01:06:37.180Z,76.24
2022-09-21T01:12:03.425Z,76.37
2022-09-21T01:17:32.142Z,76.35
2022-09-21T01:23:03.254Z,76.19
2022-09-21T01:28:07.777Z,76.41
2022-09-21T01:33:21.280Z,76.78
2022-09-21T01:39:06.367Z,77.45
2022-09-21T01:44:13.031Z,77.45
2022-09-21T01:49:27.513Z,77.41
2022-09-21T01:54:37.897Z,76.21
2022-09-21T01:59:47.726Z,76.96
2022-09-21T02:04:49.101Z,77.95
2022-09-21T02:09:51.808Z,76.34
2022-09-21T02:14:55.489Z,77.37
2022-09-21T02:20:17.479Z,77.51
2022-09-21T02:25:39.984Z,76.52
2022-09-21T02:30:47.710Z,76.79
2022-09-21T02:35:51.960Z,78.25
2022-09-21T02:41:09.553Z,78.33
2022-09-21T02:46:19.311Z,78.49
2022-09-21T02:51:26.038Z,78.55
2022-09-21T02:56:30.848Z,78.99
2022-09-21T03:01:33.302Z,79.07
2022-09-21T03:06:34.634Z,79.85
2022-09-21T03:11:39.084Z,80.31
2022-09-21T03:16:40.426Z,80.33
2022-09-21T03:21:44.651Z,79.62
2022-09-21T03:26:46.682Z,79.68
2022-09-21T03:31:47.950Z,79.31
2022-09-21T03:36:49.208Z,78.25
2022-09-21T03:41:50.691Z,78.45
2022-09-21T03:46:52.659Z,78.64
2022-09-21T03:51:54.556Z,78.61
2022-09-21T03:56:55.840Z,78.19
2022-09-21T04:01:57.117Z,78.20
2022-09-21T04:06:58.901Z,77.44
2022-09-21T04:12:00.148Z,76.73
2022-09-21T04:17:01.422Z,76.19
2022-09-21T04:22:02.711Z,76.76
2022-09-21T04:27:04.250Z,77.96
2022-09-21T04:32:05.772Z,77.41
2022-09-21T04:37:13.384Z,77.43
2022-09-21T04:42:14.785Z,77.94
2022-09-21T04:47:16.128Z,78.20
2022-09-21T04:52:19.220Z,78.21
2022-09-21T04:57:20.616Z,78.49
2022-09-21T05:02:22.014Z,77.80
2022-09-21T05:07:23.327Z,77.91
2022-09-21T05:12:24.677Z,77.39
2022-09-21T05:17:26.320Z,78.02
2022-09-21T05:22:33.248Z,77.51
2022-09-21T05:27:34.606Z,76.85
2022-09-21T05:32:52.973Z,76.82
2022-09-21T05:38:04.161Z,77.24
2022-09-21T05:43:05.828Z,77.27
2022-09-21T05:48:20.988Z,76.98
2022-09-21T05:53:47.882Z,77.30
2022-09-21T05:58:59.976Z,77.96
2022-09-21T06:04:02.834Z,76.70
2022-09-21T06:09:04.289Z,76.49
2022-09-21T06:14:06.184Z,76.91
2022-09-21T06:19:11.654Z,75.56
2022-09-21T06:24:13.194Z,74.40
2022-09-21T06:29:14.780Z,73.41
2022-09-21T06:34:16.195Z,73.48
2022-09-21T06:39:17.592Z,73.42
2022-09-21T06:44:18.905Z,73.22
2022-09-21T06:49:20.222Z,72.82
2022-09-21T06:54:22.082Z,72.49
2022-09-21T06:59:23.540Z,72.04
2022-09-21T07:04:25.327Z,71.52
2022-09-21T07:14:48.314Z,70.70
2022-09-21T07:19:50.434Z,70.14
2022-09-21T07:24:51.882Z,69.43
2022-09-21T07:29:53.275Z,69.00
2022-09-21T07:34:57.146Z,68.08
2022-09-21T07:39:58.862Z,67.48
2022-09-21T07:45:04.327Z,65.83
2022-09-21T07:50:06.770Z,65.08
2022-09-21T07:55:08.405Z,65.10
2022-09-21T08:00:10.393Z,64.56
2022-09-21T08:05:11.737Z,65.07
2022-09-21T08:10:13.097Z,64.16
2022-09-21T08:15:37.084Z,63.52
2022-09-21T08:20:35.934Z,62.22
2022-09-21T08:25:37.405Z,61.32
2022-09-21T08:30:38.681Z,61.83
2022-09-21T08:35:39.954Z,60.50
2022-09-21T08:40:41.617Z,59.01
2022-09-21T08:45:45.328Z,59.13
2022-09-21T08:51:00.693Z,57.14
2022-09-21T08:56:02.934Z,56.96
2022-09-21T09:01:19.515Z,56.43
2022-09-21T09:06:54.032Z,53.49
2022-09-21T09:12:11.459Z,51.84
2022-09-21T09:17:41.009Z,50.10
2022-09-21T09:23:08.687Z,50.10
2022-09-21T09:28:29.127Z,47.47
2022-09-21T09:33:46.887Z,47.02
2022-09-21T09:39:02.335Z,47.24
2022-09-21T09:44:20.734Z,46.21
2022-09-21T09:49:43.401Z,44.52
2022-09-21T09:54:45.066Z,44.21
2022-09-21T09:59:54.697Z,42.09
2022-09-21T10:05:08.819Z,35.65
2022-09-21T10:10:28.418Z,30.33
2022-09-21T10:15:29.865Z,28.35
2022-09-21T10:20:33.116Z,30.32
2022-09-21T10:25:39.486Z,30.95
2022-09-21T10:30:41.778Z,32.01
2022-09-21T10:35:52.238Z,28.01
2022-09-21T10:40:54.353Z,23.37
2022-09-21T10:45:57.697Z,20.84
2022-09-21T10:50:59.265Z,19.07
2022-09-21T10:56:15.928Z,22.96
2022-09-21T11:01:28.337Z,23.52
2022-09-21T11:06:35.662Z,20.39
2022-09-21T11:11:59.380Z,16.80
2022-09-21T11:17:12.200Z,15.52
2022-09-21T11:22:31.488Z,14.75
2022-09-21T11:28:01.425Z,13.27
2022-09-21T11:33:43.053Z,12.72
2022-09-21T11:38:47.311Z,12.23
2022-09-21T11:44:14.392Z,11.93
2022-09-21T11:49:46.765Z,11.09
2022-09-21T11:54:58.358Z,10.16
2022-09-21T12:00:05.961Z,10.68
2022-09-21T12:05:20.051Z,11.50
2022-09-21T12:11:01.385Z,15.55
2022-09-21T12:16:38.327Z,14.64
2022-09-21T12:21:50.502Z,11.41
2022-09-21T12:26:57.034Z,10.47
2022-09-21T12:32:07.777Z,10.54
2022-09-21T12:37:24.106Z,9.61
2022-09-21T12:42:34.867Z,9.09
2022-09-21T12:47:53.449Z,9.37
2022-09-21T12:52:57.209Z,9.67
2022-09-21T12:58:30.788Z,13.60
2022-09-21T13:04:01.902Z,19.27
2022-09-21T13:09:07.303Z,23.44
2022-09-21T13:14:13.131Z,18.00
2022-09-21T13:19:23.009Z,14.46
2022-09-21T13:24:29.427Z,13.22
2022-09-21T13:29:33.392Z,12.79
2022-09-21T13:34:37.040Z,12.58
2022-09-21T13:39:51.123Z,17.23
2022-09-21T13:44:52.462Z,21.10
2022-09-21T13:49:59.722Z,23.43
2022-09-21T13:55:05.434Z,24.69
2022-09-21T14:00:12.772Z,25.40
2022-09-21T14:05:23.361Z,25.68
2022-09-21T14:10:25.857Z,27.56
2022-09-21T14:15:27.094Z,29.27
2022-09-21T14:20:34.642Z,30.03
2022-09-21T14:25:53.109Z,31.56
2022-09-21T14:30:58.097Z,32.19
2022-09-21T14:36:05.503Z,32.83
2022-09-21T14:41:08.497Z,32.80
2022-09-21T14:46:24.450Z,33.04
2022-09-21T14:51:46.846Z,32.72
2022-09-21T14:57:12.534Z,33.91
2022-09-21T15:02:22.303Z,34.58
2022-09-21T15:08:00.387Z,35.70
2022-09-21T15:13:11.608Z,35.74
2022-09-21T15:18:20.300Z,36.28
2022-09-21T15:23:25.124Z,36.05
2022-09-21T15:28:57.996Z,37.79
2022-09-21T15:33:57.066Z,37.31
2022-09-21T15:39:01.062Z,36.24
2022-09-21T15:44:14.165Z,37.26
2022-09-21T15:49:21.284Z,37.14
2022-09-21T15:54:30.444Z,36.94
2022-09-21T15:59:31.723Z,37.00
2022-09-21T16:04:33.799Z,37.08
2022-09-21T16:09:42.434Z,37.88
2022-09-21T16:14:57.968Z,37.91
2022-09-21T16:20:19.468Z,40.37
2022-09-21T16:25:21.444Z,40.70
2022-09-21T16:30:44.576Z,41.56
2022-09-21T16:35:46.080Z,42.07
2022-09-21T16:40:47.499Z,42.01
2022-09-21T16:45:48.768Z,42.83
2022-09-21T16:50:52.029Z,43.36
2022-09-21T16:55:56.355Z,44.37
2022-09-21T17:01:00.795Z,44.50
2022-09-21T17:06:02.580Z,44.53
2022-09-21T17:11:04.388Z,44.29
2022-09-21T17:16:06.023Z,45.30
2022-09-21T17:21:08.750Z,45.47
2022-09-21T17:26:19.118Z,45.33
2022-09-21T17:31:23.998Z,45.58
2022-09-21T17:36:25.279Z,46.42
2022-09-21T17:41:34.831Z,46.82
2022-09-21T17:46:46.035Z,46.64
2022-09-21T17:52:06.158Z,47.41
2022-09-21T17:57:21.629Z,47.66
2022-09-21T18:02:25.288Z,47.54
2022-09-21T18:07:27.348Z,48.46
2022-09-21T18:12:38.362Z,48.29
2022-09-21T18:17:48.345Z,48.50
2022-09-21T18:23:24.052Z,48.11
2022-09-21T18:28:59.361Z,48.83
2022-09-21T18:34:12.868Z,48.71
2022-09-21T18:39:23.218Z,48.33
2022-09-21T18:44:46.636Z,48.40
2022-09-21T18:50:18.385Z,47.62
2022-09-21T18:55:26.920Z,47.96
2022-09-21T19:00:31.494Z,49.10
2022-09-21T19:05:33.292Z,51.02
2022-09-21T19:10:43.668Z,50.02
2022-09-21T19:16:00.244Z,49.40
2022-09-21T19:21:21.339Z,50.65
2022-09-21T19:26:38.808Z,51.40
2022-09-21T19:31:40.253Z,50.62
2022-09-21T19:36:42.365Z,51.16
2022-09-21T19:41:58.899Z,51.09
2022-09-21T19:47:12.624Z,51.39
2022-09-21T19:52:17.647Z,52.17
2022-09-21T19:57:56.885Z,52.99
2022-09-21T20:03:21.730Z,54.72
2022-09-21T20:08:33.693Z,55.24
2022-09-21T20:13:41.178Z,53.92
2022-09-21T20:19:06.108Z,56.84
2022-09-21T20:24:26.820Z,54.65
2022-09-21T20:29:28.534Z,55.06
2022-09-21T20:34:31.373Z,54.65
2022-09-21T20:39:32.850Z,54.65
2022-09-21T20:44:34.450Z,56.11
2022-09-21T20:49:35.882Z,55.74
2022-09-21T20:54:37.241Z,56.02
2022-09-21T20:59:39.363Z,55.84
2022-09-21T21:04:40.833Z,56.91
2022-09-21T21:09:42.112Z,57.04
2022-09-21T21:14:45.254Z,57.45
2022-09-21T21:19:46.517Z,57.07
2022-09-21T21:24:47.864Z,57.20
2022-09-21T21:29:50.721Z,57.00
2022-09-21T21:34:53.561Z,58.67
2022-09-21T21:39:55.991Z,58.46
2022-09-21T21:44:57.286Z,58.50
2022-09-21T21:49:58.526Z,57.94
2022-09-21T21:54:59.780Z,58.85
2022-09-21T22:00:01.229Z,59.58
2022-09-21T22:05:02.582Z,59.73
2022-09-21T22:10:04.118Z,61.43
2022-09-21T22:15:06.074Z,60.31
2022-09-21T22:20:08.465Z,61.36
2022-09-21T22:25:09.733Z,61.06
2022-09-21T22:30:11.432Z,61.52
2022-09-21T22:35:12.804Z,62.29
2022-09-21T22:40:15.303Z,61.83
2022-09-21T22:45:16.693Z,63.32
2022-09-21T22:50:17.962Z,63.57
2022-09-21T22:55:19.225Z,62.33
2022-09-21T23:00:20.460Z,63.08
2022-09-21T23:05:23.027Z,63.50
2022-09-21T23:10:26.546Z,64.12
2022-09-21T23:15:27.787Z,64.89
2022-09-21T23:20:29.038Z,65.06
2022-09-21T23:25:30.317Z,65.72
2022-09-21T23:30:31.581Z,66.15
2022-09-21T23:35:32.878Z,66.75
2022-09-21T23:40:34.263Z,67.45
2022-09-21T23:45:35.590Z,67.53
2022-09-21T23:50:36.893Z,67.94
2022-09-21T23:55:39.181Z,68.61
